sensor_id;sensor_type;location;lat;lon;timestamp;temperature;humidity
17489;DHT22;8861;52.644;4.734;2023-11-21T00:01:26;10.30;99.90
17489;DHT22;8861;52.644;4.734;2023-11-21T00:03:53;10.40;99.90
17489;DHT22;8861;52.644;4.734;2023-11-21T00:06:21;10.30;99.90
17489;DHT22;8861;52.644;4.734;2023-11-21T00:08:49;10.30;99.90
17489;DHT22;8861;52.644;4.734;2023-11-21T00:11:16;10.30;99.90
17489;DHT22;8861;52.644;4.734;2023-11-21T00:13:43;10.30;99.90
17489;DHT22;8861;52.644;4.734;2023-11-21T00:16:11;10.20;99.90
17489;DHT22;8861;52.644;4.734;2023-11-21T00:18:38;10.20;99.90
17489;DHT22;8861;52.644;4.734;2023-11-21T00:21:05;10.20;99.90
17489;DHT22;8861;52.644;4.734;2023-11-21T00:23:32;10.20;99.90
17489;DHT22;8861;52.644;4.734;2023-11-21T00:26:01;10.20;99.90
17489;DHT22;8861;52.644;4.734;2023-11-21T00:28:29;10.20;99.90
17489;DHT22;8861;52.644;4.734;2023-11-21T00:30:56;10.20;99.90
17489;DHT22;8861;52.644;4.734;2023-11-21T00:33:23;10.30;99.90
17489;DHT22;8861;52.644;4.734;2023-11-21T00:35:51;10.20;99.90
17489;DHT22;8861;52.644;4.734;2023-11-21T00:38:18;10.30;99.90
17489;DHT22;8861;52.644;4.734;2023-11-21T00:40:45;10.30;99.90
17489;DHT22;8861;52.644;4.734;2023-11-21T00:43:14;10.20;99.90
17489;DHT22;8861;52.644;4.734;2023-11-21T00:45:41;10.20;99.90
17489;DHT22;8861;52.644;4.734;2023-11-21T00:48:08;10.10;99.90
17489;DHT22;8861;52.644;4.734;2023-11-21T00:50:35;10.10;99.90
17489;DHT22;8861;52.644;4.734;2023-11-21T00:53:02;10.10;99.90
17489;DHT22;8861;52.644;4.734;2023-11-21T00:55:30;10.10;99.90
17489;DHT22;8861;52.644;4.734;2023-11-21T00:57:57;10.00;99.90
17489;DHT22;8861;52.644;4.734;2023-11-21T01:00:25;9.90;99.90
17489;DHT22;8861;52.644;4.734;2023-11-21T01:02:52;9.80;99.90
17489;DHT22;8861;52.644;4.734;2023-11-21T01:05:19;9.70;99.90
17489;DHT22;8861;52.644;4.734;2023-11-21T01:07:47;9.60;99.90
17489;DHT22;8861;52.644;4.734;2023-11-21T01:10:13;9.60;99.90
17489;DHT22;8861;52.644;4.734;2023-11-21T01:12:42;9.60;99.90
17489;DHT22;8861;52.644;4.734;2023-11-21T01:15:10;9.60;99.90
17489;DHT22;8861;52.644;4.734;2023-11-21T01:17:39;9.70;99.90
17489;DHT22;8861;52.644;4.734;2023-11-21T01:20:07;9.70;99.90
17489;DHT22;8861;52.644;4.734;2023-11-21T01:22:38;9.80;99.90
17489;DHT22;8861;52.644;4.734;2023-11-21T01:25:05;9.90;99.90
17489;DHT22;8861;52.644;4.734;2023-11-21T01:27:33;9.90;99.90
17489;DHT22;8861;52.644;4.734;2023-11-21T01:30:01;9.90;99.90
17489;DHT22;8861;52.644;4.734;2023-11-21T01:32:28;9.90;99.90
17489;DHT22;8861;52.644;4.734;2023-11-21T01:34:56;9.90;99.90
17489;DHT22;8861;52.644;4.734;2023-11-21T01:37:23;10.00;99.90
17489;DHT22;8861;52.644;4.734;2023-11-21T01:39:53;10.10;99.90
17489;DHT22;8861;52.644;4.734;2023-11-21T01:42:20;10.10;99.90
17489;DHT22;8861;52.644;4.734;2023-11-21T01:44:47;10.10;99.90
17489;DHT22;8861;52.644;4.734;2023-11-21T01:47:14;10.10;99.90
17489;DHT22;8861;52.644;4.734;2023-11-21T01:49:44;10.10;99.90
17489;DHT22;8861;52.644;4.734;2023-11-21T01:52:13;10.20;99.90
17489;DHT22;8861;52.644;4.734;2023-11-21T01:54:41;10.20;99.90
17489;DHT22;8861;52.644;4.734;2023-11-21T01:57:08;10.20;99.90
17489;DHT22;8861;52.644;4.734;2023-11-21T01:59:36;10.30;99.90
17489;DHT22;8861;52.644;4.734;2023-11-21T02:02:04;10.30;99.90
17489;DHT22;8861;52.644;4.734;2023-11-21T02:04:32;10.30;99.90
17489;DHT22;8861;52.644;4.734;2023-11-21T02:06:59;10.30;99.90
17489;DHT22;8861;52.644;4.734;2023-11-21T02:09:28;10.30;99.90
17489;DHT22;8861;52.644;4.734;2023-11-21T02:11:55;10.30;99.90
17489;DHT22;8861;52.644;4.734;2023-11-21T02:14:22;10.40;99.90
17489;DHT22;8861;52.644;4.734;2023-11-21T02:16:51;10.40;99.90
17489;DHT22;8861;52.644;4.734;2023-11-21T02:19:19;10.40;99.90
17489;DHT22;8861;52.644;4.734;2023-11-21T02:21:49;10.40;99.90
17489;DHT22;8861;52.644;4.734;2023-11-21T02:24:19;10.30;99.90
17489;DHT22;8861;52.644;4.734;2023-11-21T02:26:46;10.30;99.90
17489;DHT22;8861;52.644;4.734;2023-11-21T02:29:13;10.30;99.90
17489;DHT22;8861;52.644;4.734;2023-11-21T02:31:42;10.20;99.90
17489;DHT22;8861;52.644;4.734;2023-11-21T02:34:14;10.10;99.90
17489;DHT22;8861;52.644;4.734;2023-11-21T02:36:41;10.00;99.90
17489;DHT22;8861;52.644;4.734;2023-11-21T02:39:09;9.90;99.90
17489;DHT22;8861;52.644;4.734;2023-11-21T02:41:38;9.80;99.90
17489;DHT22;8861;52.644;4.734;2023-11-21T02:44:05;9.70;99.90
17489;DHT22;8861;52.644;4.734;2023-11-21T02:46:33;9.70;99.90
17489;DHT22;8861;52.644;4.734;2023-11-21T02:49:00;9.70;99.90
17489;DHT22;8861;52.644;4.734;2023-11-21T02:51:27;9.70;99.90
17489;DHT22;8861;52.644;4.734;2023-11-21T02:53:55;9.70;99.90
17489;DHT22;8861;52.644;4.734;2023-11-21T02:56:24;9.70;99.90
17489;DHT22;8861;52.644;4.734;2023-11-21T02:58:55;9.70;99.90
17489;DHT22;8861;52.644;4.734;2023-11-21T03:01:22;9.70;99.90
17489;DHT22;8861;52.644;4.734;2023-11-21T03:03:50;9.70;99.90
17489;DHT22;8861;52.644;4.734;2023-11-21T03:06:18;9.70;99.90
17489;DHT22;8861;52.644;4.734;2023-11-21T03:08:45;9.60;99.90
17489;DHT22;8861;52.644;4.734;2023-11-21T03:11:12;9.60;99.90
17489;DHT22;8861;52.644;4.734;2023-11-21T03:13:39;9.50;99.90
17489;DHT22;8861;52.644;4.734;2023-11-21T03:16:09;9.50;99.90
17489;DHT22;8861;52.644;4.734;2023-11-21T03:18:37;9.40;99.90
17489;DHT22;8861;52.644;4.734;2023-11-21T03:21:04;9.50;99.90
17489;DHT22;8861;52.644;4.734;2023-11-21T03:23:31;9.50;99.90
17489;DHT22;8861;52.644;4.734;2023-11-21T03:25:58;9.50;99.90
17489;DHT22;8861;52.644;4.734;2023-11-21T03:28:26;9.60;99.90
17489;DHT22;8861;52.644;4.734;2023-11-21T03:30:53;9.60;99.90
17489;DHT22;8861;52.644;4.734;2023-11-21T03:33:22;9.50;99.90
17489;DHT22;8861;52.644;4.734;2023-11-21T03:35:49;9.50;99.90
17489;DHT22;8861;52.644;4.734;2023-11-21T03:38:16;9.40;99.90
17489;DHT22;8861;52.644;4.734;2023-11-21T03:40:43;9.40;99.90
17489;DHT22;8861;52.644;4.734;2023-11-21T03:43:10;9.50;99.90
17489;DHT22;8861;52.644;4.734;2023-11-21T03:45:37;9.50;99.90
17489;DHT22;8861;52.644;4.734;2023-11-21T03:48:06;9.60;99.90
17489;DHT22;8861;52.644;4.734;2023-11-21T03:50:34;9.60;99.90
17489;DHT22;8861;52.644;4.734;2023-11-21T03:53:03;9.70;99.90
17489;DHT22;8861;52.644;4.734;2023-11-21T03:55:30;9.70;99.90
17489;DHT22;8861;52.644;4.734;2023-11-21T03:57:57;9.70;99.90
17489;DHT22;8861;52.644;4.734;2023-11-21T04:00:25;9.80;99.90
17489;DHT22;8861;52.644;4.734;2023-11-21T04:02:53;9.80;99.90
17489;DHT22;8861;52.644;4.734;2023-11-21T04:05:20;9.90;99.90
17489;DHT22;8861;52.644;4.734;2023-11-21T04:07:50;9.80;99.90
17489;DHT22;8861;52.644;4.734;2023-11-21T04:10:18;9.90;99.90
17489;DHT22;8861;52.644;4.734;2023-11-21T04:12:45;9.90;99.90
17489;DHT22;8861;52.644;4.734;2023-11-21T04:15:12;9.90;99.90
17489;DHT22;8861;52.644;4.734;2023-11-21T04:17:40;9.90;99.90
17489;DHT22;8861;52.644;4.734;2023-11-21T04:20:09;9.90;99.90
17489;DHT22;8861;52.644;4.734;2023-11-21T04:22:37;9.90;99.90
17489;DHT22;8861;52.644;4.734;2023-11-21T04:25:09;10.00;99.90
17489;DHT22;8861;52.644;4.734;2023-11-21T04:27:36;10.00;99.90
17489;DHT22;8861;52.644;4.734;2023-11-21T04:30:04;10.00;99.90
17489;DHT22;8861;52.644;4.734;2023-11-21T04:32:33;10.00;99.90
17489;DHT22;8861;52.644;4.734;2023-11-21T04:35:00;10.00;99.90
17489;DHT22;8861;52.644;4.734;2023-11-21T04:37:27;10.00;99.90
17489;DHT22;8861;52.644;4.734;2023-11-21T04:39:55;10.10;99.90
17489;DHT22;8861;52.644;4.734;2023-11-21T04:42:23;10.00;99.90
17489;DHT22;8861;52.644;4.734;2023-11-21T04:44:50;10.10;99.90
17489;DHT22;8861;52.644;4.734;2023-11-21T04:47:18;10.10;99.90
17489;DHT22;8861;52.644;4.734;2023-11-21T04:49:46;10.10;99.90
17489;DHT22;8861;52.644;4.734;2023-11-21T04:52:13;10.20;99.90
17489;DHT22;8861;52.644;4.734;2023-11-21T04:54:41;10.20;99.90
17489;DHT22;8861;52.644;4.734;2023-11-21T04:57:08;10.20;99.90
17489;DHT22;8861;52.644;4.734;2023-11-21T04:59:37;10.20;99.90
17489;DHT22;8861;52.644;4.734;2023-11-21T05:02:04;10.20;99.90
17489;DHT22;8861;52.644;4.734;2023-11-21T05:04:31;10.20;99.90
17489;DHT22;8861;52.644;4.734;2023-11-21T05:06:58;10.20;99.90
17489;DHT22;8861;52.644;4.734;2023-11-21T05:09:26;10.20;99.90
17489;DHT22;8861;52.644;4.734;2023-11-21T05:11:54;10.20;99.90
17489;DHT22;8861;52.644;4.734;2023-11-21T05:14:21;10.30;99.90
17489;DHT22;8861;52.644;4.734;2023-11-21T05:16:49;10.30;99.90
17489;DHT22;8861;52.644;4.734;2023-11-21T05:19:17;10.30;99.90
17489;DHT22;8861;52.644;4.734;2023-11-21T05:21:44;10.30;99.90
17489;DHT22;8861;52.644;4.734;2023-11-21T05:24:13;10.30;99.90
17489;DHT22;8861;52.644;4.734;2023-11-21T05:26:39;10.30;99.90
17489;DHT22;8861;52.644;4.734;2023-11-21T05:29:09;10.40;99.90
17489;DHT22;8861;52.644;4.734;2023-11-21T05:31:36;10.40;99.90
17489;DHT22;8861;52.644;4.734;2023-11-21T05:34:05;10.40;99.90
17489;DHT22;8861;52.644;4.734;2023-11-21T05:36:31;10.40;99.90
17489;DHT22;8861;52.644;4.734;2023-11-21T05:38:59;10.40;99.90
17489;DHT22;8861;52.644;4.734;2023-11-21T05:41:26;10.40;99.90
17489;DHT22;8861;52.644;4.734;2023-11-21T05:43:53;10.30;99.90
17489;DHT22;8861;52.644;4.734;2023-11-21T05:46:20;10.30;99.90
17489;DHT22;8861;52.644;4.734;2023-11-21T05:48:47;10.30;99.90
17489;DHT22;8861;52.644;4.734;2023-11-21T05:51:15;10.30;99.90
17489;DHT22;8861;52.644;4.734;2023-11-21T05:53:43;10.30;99.90
17489;DHT22;8861;52.644;4.734;2023-11-21T05:56:10;10.30;99.90
17489;DHT22;8861;52.644;4.734;2023-11-21T05:58:37;10.30;99.90
17489;DHT22;8861;52.644;4.734;2023-11-21T06:01:06;10.20;99.90
17489;DHT22;8861;52.644;4.734;2023-11-21T06:03:34;10.20;99.90
17489;DHT22;8861;52.644;4.734;2023-11-21T06:06:01;10.20;99.90
17489;DHT22;8861;52.644;4.734;2023-11-21T06:08:31;10.20;99.90
17489;DHT22;8861;52.644;4.734;2023-11-21T06:10:58;10.20;99.90
17489;DHT22;8861;52.644;4.734;2023-11-21T06:13:25;10.20;99.90
17489;DHT22;8861;52.644;4.734;2023-11-21T06:15:52;10.10;99.90
17489;DHT22;8861;52.644;4.734;2023-11-21T06:18:19;10.10;99.90
17489;DHT22;8861;52.644;4.734;2023-11-21T06:20:46;10.10;99.90
17489;DHT22;8861;52.644;4.734;2023-11-21T06:23:13;10.10;99.90
17489;DHT22;8861;52.644;4.734;2023-11-21T06:25:43;10.10;99.90
17489;DHT22;8861;52.644;4.734;2023-11-21T06:28:10;10.10;99.90
17489;DHT22;8861;52.644;4.734;2023-11-21T06:30:37;10.20;99.90
17489;DHT22;8861;52.644;4.734;2023-11-21T06:33:04;10.20;99.90
17489;DHT22;8861;52.644;4.734;2023-11-21T06:35:32;10.20;99.90
17489;DHT22;8861;52.644;4.734;2023-11-21T06:38:00;10.30;99.90
17489;DHT22;8861;52.644;4.734;2023-11-21T06:40:28;10.20;99.90
17489;DHT22;8861;52.644;4.734;2023-11-21T06:42:56;10.30;99.90
17489;DHT22;8861;52.644;4.734;2023-11-21T06:45:24;10.30;99.90
17489;DHT22;8861;52.644;4.734;2023-11-21T06:47:51;10.30;99.90
17489;DHT22;8861;52.644;4.734;2023-11-21T06:50:18;10.30;99.90
17489;DHT22;8861;52.644;4.734;2023-11-21T06:52:45;10.30;99.90
17489;DHT22;8861;52.644;4.734;2023-11-21T06:55:12;10.30;99.90
17489;DHT22;8861;52.644;4.734;2023-11-21T06:57:39;10.30;99.90
17489;DHT22;8861;52.644;4.734;2023-11-21T07:00:09;10.30;99.90
17489;DHT22;8861;52.644;4.734;2023-11-21T07:02:37;10.30;99.90
17489;DHT22;8861;52.644;4.734;2023-11-21T07:05:04;10.30;99.90
17489;DHT22;8861;52.644;4.734;2023-11-21T07:07:32;10.30;99.90
17489;DHT22;8861;52.644;4.734;2023-11-21T07:10:01;10.30;99.90
17489;DHT22;8861;52.644;4.734;2023-11-21T07:12:29;10.40;99.90
17489;DHT22;8861;52.644;4.734;2023-11-21T07:14:57;10.30;99.90
17489;DHT22;8861;52.644;4.734;2023-11-21T07:17:25;10.30;99.90
17489;DHT22;8861;52.644;4.734;2023-11-21T07:19:52;10.30;99.90
17489;DHT22;8861;52.644;4.734;2023-11-21T07:22:20;10.30;99.90
17489;DHT22;8861;52.644;4.734;2023-11-21T07:24:48;10.30;99.90
17489;DHT22;8861;52.644;4.734;2023-11-21T07:27:16;10.30;99.90
17489;DHT22;8861;52.644;4.734;2023-11-21T07:29:44;10.30;99.90
17489;DHT22;8861;52.644;4.734;2023-11-21T07:32:11;10.30;99.90
17489;DHT22;8861;52.644;4.734;2023-11-21T07:34:40;10.30;99.90
17489;DHT22;8861;52.644;4.734;2023-11-21T07:37:08;10.30;99.90
17489;DHT22;8861;52.644;4.734;2023-11-21T07:39:35;10.20;99.90
17489;DHT22;8861;52.644;4.734;2023-11-21T07:42:03;10.30;99.90
17489;DHT22;8861;52.644;4.734;2023-11-21T07:44:30;10.30;99.90
17489;DHT22;8861;52.644;4.734;2023-11-21T07:46:57;10.30;99.90
17489;DHT22;8861;52.644;4.734;2023-11-21T07:49:24;10.30;99.90
17489;DHT22;8861;52.644;4.734;2023-11-21T07:51:53;10.30;99.90
17489;DHT22;8861;52.644;4.734;2023-11-21T07:54:20;10.30;99.90
17489;DHT22;8861;52.644;4.734;2023-11-21T07:56:48;10.40;99.90
17489;DHT22;8861;52.644;4.734;2023-11-21T07:59:15;10.40;99.90
17489;DHT22;8861;52.644;4.734;2023-11-21T08:01:43;10.40;99.90
17489;DHT22;8861;52.644;4.734;2023-11-21T08:04:11;10.40;99.90
17489;DHT22;8861;52.644;4.734;2023-11-21T08:06:38;10.40;99.90
17489;DHT22;8861;52.644;4.734;2023-11-21T08:09:08;10.50;99.90
17489;DHT22;8861;52.644;4.734;2023-11-21T08:11:38;10.50;99.90
17489;DHT22;8861;52.644;4.734;2023-11-21T08:14:05;10.50;99.90
17489;DHT22;8861;52.644;4.734;2023-11-21T08:16:32;10.50;99.90
17489;DHT22;8861;52.644;4.734;2023-11-21T08:18:59;10.60;99.90
17489;DHT22;8861;52.644;4.734;2023-11-21T08:21:26;10.60;99.90
17489;DHT22;8861;52.644;4.734;2023-11-21T08:23:54;10.70;99.90
17489;DHT22;8861;52.644;4.734;2023-11-21T08:26:23;10.70;99.90
17489;DHT22;8861;52.644;4.734;2023-11-21T08:28:50;10.70;99.90
17489;DHT22;8861;52.644;4.734;2023-11-21T08:31:23;10.70;99.90
17489;DHT22;8861;52.644;4.734;2023-11-21T08:33:51;10.80;99.90
17489;DHT22;8861;52.644;4.734;2023-11-21T08:36:18;10.80;99.90
17489;DHT22;8861;52.644;4.734;2023-11-21T08:38:46;10.80;99.90
17489;DHT22;8861;52.644;4.734;2023-11-21T08:41:14;10.80;99.90
17489;DHT22;8861;52.644;4.734;2023-11-21T08:43:43;10.90;99.90
17489;DHT22;8861;52.644;4.734;2023-11-21T08:46:10;10.90;99.90
17489;DHT22;8861;52.644;4.734;2023-11-21T08:48:37;10.90;99.90
17489;DHT22;8861;52.644;4.734;2023-11-21T08:51:05;11.00;99.90
17489;DHT22;8861;52.644;4.734;2023-11-21T08:53:32;11.10;99.90
17489;DHT22;8861;52.644;4.734;2023-11-21T08:55:59;11.10;99.90
17489;DHT22;8861;52.644;4.734;2023-11-21T08:58:26;11.20;99.90
17489;DHT22;8861;52.644;4.734;2023-11-21T09:00:55;11.20;99.90
17489;DHT22;8861;52.644;4.734;2023-11-21T09:03:22;11.30;99.90
17489;DHT22;8861;52.644;4.734;2023-11-21T09:05:49;11.30;99.90
17489;DHT22;8861;52.644;4.734;2023-11-21T09:08:16;11.30;99.90
17489;DHT22;8861;52.644;4.734;2023-11-21T09:10:43;11.30;99.90
17489;DHT22;8861;52.644;4.734;2023-11-21T09:13:13;11.30;99.90
17489;DHT22;8861;52.644;4.734;2023-11-21T09:15:42;11.40;99.90
17489;DHT22;8861;52.644;4.734;2023-11-21T09:18:13;11.40;99.90
17489;DHT22;8861;52.644;4.734;2023-11-21T09:20:40;11.40;99.90
17489;DHT22;8861;52.644;4.734;2023-11-21T09:23:08;11.40;99.90
17489;DHT22;8861;52.644;4.734;2023-11-21T09:25:35;11.50;99.90
17489;DHT22;8861;52.644;4.734;2023-11-21T09:28:03;11.50;99.90
17489;DHT22;8861;52.644;4.734;2023-11-21T09:30:33;11.60;99.90
17489;DHT22;8861;52.644;4.734;2023-11-21T09:33:00;11.60;99.90
17489;DHT22;8861;52.644;4.734;2023-11-21T09:35:28;11.60;99.90
17489;DHT22;8861;52.644;4.734;2023-11-21T09:37:56;11.60;99.90
17489;DHT22;8861;52.644;4.734;2023-11-21T09:40:23;11.70;99.90
17489;DHT22;8861;52.644;4.734;2023-11-21T09:42:54;11.70;99.90
17489;DHT22;8861;52.644;4.734;2023-11-21T09:45:25;11.80;99.90
17489;DHT22;8861;52.644;4.734;2023-11-21T09:47:53;11.90;99.90
17489;DHT22;8861;52.644;4.734;2023-11-21T09:50:21;12.00;99.90
17489;DHT22;8861;52.644;4.734;2023-11-21T09:52:55;12.10;99.90
17489;DHT22;8861;52.644;4.734;2023-11-21T09:55:26;12.10;99.90
17489;DHT22;8861;52.644;4.734;2023-11-21T09:57:56;12.20;99.90
17489;DHT22;8861;52.644;4.734;2023-11-21T10:00:23;12.20;99.90
17489;DHT22;8861;52.644;4.734;2023-11-21T10:02:51;12.20;99.90
17489;DHT22;8861;52.644;4.734;2023-11-21T10:05:18;12.20;99.90
17489;DHT22;8861;52.644;4.734;2023-11-21T10:07:50;12.20;99.90
17489;DHT22;8861;52.644;4.734;2023-11-21T10:10:19;12.20;99.90
17489;DHT22;8861;52.644;4.734;2023-11-21T10:12:50;12.20;99.90
17489;DHT22;8861;52.644;4.734;2023-11-21T10:15:21;12.30;99.90
17489;DHT22;8861;52.644;4.734;2023-11-21T10:17:49;12.40;99.90
17489;DHT22;8861;52.644;4.734;2023-11-21T10:20:19;12.50;99.90
17489;DHT22;8861;52.644;4.734;2023-11-21T10:22:46;12.50;99.90
17489;DHT22;8861;52.644;4.734;2023-11-21T10:25:14;12.50;99.90
17489;DHT22;8861;52.644;4.734;2023-11-21T10:27:42;12.40;99.90
17489;DHT22;8861;52.644;4.734;2023-11-21T10:30:10;12.40;99.90
17489;DHT22;8861;52.644;4.734;2023-11-21T10:32:38;12.30;99.90
17489;DHT22;8861;52.644;4.734;2023-11-21T10:35:06;12.30;99.90
17489;DHT22;8861;52.644;4.734;2023-11-21T10:37:36;12.30;99.90
17489;DHT22;8861;52.644;4.734;2023-11-21T10:40:06;12.30;99.90
17489;DHT22;8861;52.644;4.734;2023-11-21T10:42:34;12.40;99.90
17489;DHT22;8861;52.644;4.734;2023-11-21T10:45:01;12.40;99.90
17489;DHT22;8861;52.644;4.734;2023-11-21T10:47:31;12.40;99.90
17489;DHT22;8861;52.644;4.734;2023-11-21T10:50:00;12.40;99.90
17489;DHT22;8861;52.644;4.734;2023-11-21T10:52:28;12.40;99.90
17489;DHT22;8861;52.644;4.734;2023-11-21T10:54:55;12.40;99.90
17489;DHT22;8861;52.644;4.734;2023-11-21T10:57:25;12.40;99.90
17489;DHT22;8861;52.644;4.734;2023-11-21T10:59:54;12.40;99.90
17489;DHT22;8861;52.644;4.734;2023-11-21T11:02:24;12.60;99.90
17489;DHT22;8861;52.644;4.734;2023-11-21T11:04:54;12.60;99.90
17489;DHT22;8861;52.644;4.734;2023-11-21T11:07:26;12.50;99.90
17489;DHT22;8861;52.644;4.734;2023-11-21T11:09:53;12.50;99.90
17489;DHT22;8861;52.644;4.734;2023-11-21T11:12:21;12.40;99.90
17489;DHT22;8861;52.644;4.734;2023-11-21T11:14:48;12.30;99.90
17489;DHT22;8861;52.644;4.734;2023-11-21T11:17:17;12.20;99.90
17489;DHT22;8861;52.644;4.734;2023-11-21T11:19:46;12.00;99.90
17489;DHT22;8861;52.644;4.734;2023-11-21T11:22:24;11.90;99.90
17489;DHT22;8861;52.644;4.734;2023-11-21T11:25:09;11.80;99.90
17489;DHT22;8861;52.644;4.734;2023-11-21T11:27:48;11.60;99.90
17489;DHT22;8861;52.644;4.734;2023-11-21T11:30:27;11.50;99.90
17489;DHT22;8861;52.644;4.734;2023-11-21T11:33:06;11.40;99.90
17489;DHT22;8861;52.644;4.734;2023-11-21T11:35:42;11.20;99.90
17489;DHT22;8861;52.644;4.734;2023-11-21T11:38:13;11.10;99.90
17489;DHT22;8861;52.644;4.734;2023-11-21T11:40:41;11.10;99.90
17489;DHT22;8861;52.644;4.734;2023-11-21T11:43:08;11.00;99.90
17489;DHT22;8861;52.644;4.734;2023-11-21T11:45:35;11.00;99.90
17489;DHT22;8861;52.644;4.734;2023-11-21T11:48:10;11.00;99.90
17489;DHT22;8861;52.644;4.734;2023-11-21T11:50:57;11.10;99.90
17489;DHT22;8861;52.644;4.734;2023-11-21T11:53:33;11.20;99.90
17489;DHT22;8861;52.644;4.734;2023-11-21T11:56:20;11.40;99.90
17489;DHT22;8861;52.644;4.734;2023-11-21T11:58:48;11.40;99.90
17489;DHT22;8861;52.644;4.734;2023-11-21T12:01:17;11.30;99.90
17489;DHT22;8861;52.644;4.734;2023-11-21T12:04:25;11.20;99.90
17489;DHT22;8861;52.644;4.734;2023-11-21T12:06:59;11.20;99.90
17489;DHT22;8861;52.644;4.734;2023-11-21T12:09:28;11.20;99.90
17489;DHT22;8861;52.644;4.734;2023-11-21T12:11:57;11.20;99.90
17489;DHT22;8861;52.644;4.734;2023-11-21T12:14:24;11.30;99.90
17489;DHT22;8861;52.644;4.734;2023-11-21T12:16:51;11.30;99.90
17489;DHT22;8861;52.644;4.734;2023-11-21T12:19:20;11.50;99.90
17489;DHT22;8861;52.644;4.734;2023-11-21T12:21:48;11.60;99.90
17489;DHT22;8861;52.644;4.734;2023-11-21T12:24:16;11.60;99.90
17489;DHT22;8861;52.644;4.734;2023-11-21T12:26:43;11.50;99.90
17489;DHT22;8861;52.644;4.734;2023-11-21T12:29:11;11.30;99.90
17489;DHT22;8861;52.644;4.734;2023-11-21T12:31:38;11.20;99.90
17489;DHT22;8861;52.644;4.734;2023-11-21T12:34:06;11.10;99.90
17489;DHT22;8861;52.644;4.734;2023-11-21T12:36:36;11.10;99.90
17489;DHT22;8861;52.644;4.734;2023-11-21T12:39:03;11.20;99.90
17489;DHT22;8861;52.644;4.734;2023-11-21T12:41:30;11.30;99.90
17489;DHT22;8861;52.644;4.734;2023-11-21T12:43:57;11.40;99.90
17489;DHT22;8861;52.644;4.734;2023-11-21T12:46:25;11.40;99.90
17489;DHT22;8861;52.644;4.734;2023-11-21T12:48:55;11.50;99.90
17489;DHT22;8861;52.644;4.734;2023-11-21T12:51:22;11.60;99.90
17489;DHT22;8861;52.644;4.734;2023-11-21T12:53:51;11.60;99.90
17489;DHT22;8861;52.644;4.734;2023-11-21T12:56:18;11.50;99.90
17489;DHT22;8861;52.644;4.734;2023-11-21T12:58:49;11.40;99.90
17489;DHT22;8861;52.644;4.734;2023-11-21T13:01:17;11.40;99.90
17489;DHT22;8861;52.644;4.734;2023-11-21T13:03:47;11.30;99.90
17489;DHT22;8861;52.644;4.734;2023-11-21T13:06:18;11.40;99.90
17489;DHT22;8861;52.644;4.734;2023-11-21T13:08:45;11.60;99.90
17489;DHT22;8861;52.644;4.734;2023-11-21T13:11:14;11.80;99.90
17489;DHT22;8861;52.644;4.734;2023-11-21T13:13:41;11.90;99.90
17489;DHT22;8861;52.644;4.734;2023-11-21T13:16:09;11.90;99.90
17489;DHT22;8861;52.644;4.734;2023-11-21T13:18:37;11.90;99.90
17489;DHT22;8861;52.644;4.734;2023-11-21T13:21:06;11.80;99.90
17489;DHT22;8861;52.644;4.734;2023-11-21T13:23:38;11.80;99.90
17489;DHT22;8861;52.644;4.734;2023-11-21T13:26:07;11.80;99.90
17489;DHT22;8861;52.644;4.734;2023-11-21T13:28:36;11.70;99.90
17489;DHT22;8861;52.644;4.734;2023-11-21T13:31:04;11.60;99.90
17489;DHT22;8861;52.644;4.734;2023-11-21T13:33:46;11.60;99.90
17489;DHT22;8861;52.644;4.734;2023-11-21T13:36:17;11.60;99.90
17489;DHT22;8861;52.644;4.734;2023-11-21T13:38:49;11.60;99.90
17489;DHT22;8861;52.644;4.734;2023-11-21T13:41:16;11.50;99.90
17489;DHT22;8861;52.644;4.734;2023-11-21T13:43:45;11.40;99.90
17489;DHT22;8861;52.644;4.734;2023-11-21T13:46:18;11.40;99.90
17489;DHT22;8861;52.644;4.734;2023-11-21T13:48:47;11.50;99.90
17489;DHT22;8861;52.644;4.734;2023-11-21T13:51:16;11.50;99.90
17489;DHT22;8861;52.644;4.734;2023-11-21T13:53:44;11.60;99.90
17489;DHT22;8861;52.644;4.734;2023-11-21T13:56:13;11.60;99.90
17489;DHT22;8861;52.644;4.734;2023-11-21T13:58:46;11.70;99.90
17489;DHT22;8861;52.644;4.734;2023-11-21T14:01:17;11.70;99.90
17489;DHT22;8861;52.644;4.734;2023-11-21T14:04:07;11.70;99.90
17489;DHT22;8861;52.644;4.734;2023-11-21T14:06:46;11.60;99.90
17489;DHT22;8861;52.644;4.734;2023-11-21T14:09:14;11.50;99.90
17489;DHT22;8861;52.644;4.734;2023-11-21T14:11:49;11.40;99.90
17489;DHT22;8861;52.644;4.734;2023-11-21T14:14:19;11.30;99.90
17489;DHT22;8861;52.644;4.734;2023-11-21T14:16:45;11.20;99.90
17489;DHT22;8861;52.644;4.734;2023-11-21T14:19:13;11.10;99.90
17489;DHT22;8861;52.644;4.734;2023-11-21T14:21:43;11.00;99.90
17489;DHT22;8861;52.644;4.734;2023-11-21T14:24:11;11.00;99.90
17489;DHT22;8861;52.644;4.734;2023-11-21T14:26:40;11.00;99.90
17489;DHT22;8861;52.644;4.734;2023-11-21T14:29:08;11.00;99.90
17489;DHT22;8861;52.644;4.734;2023-11-21T14:31:39;11.00;99.90
17489;DHT22;8861;52.644;4.734;2023-11-21T14:34:09;10.90;99.90
17489;DHT22;8861;52.644;4.734;2023-11-21T14:36:38;10.90;99.90
17489;DHT22;8861;52.644;4.734;2023-11-21T14:39:06;10.80;99.90
17489;DHT22;8861;52.644;4.734;2023-11-21T14:41:36;10.80;99.90
17489;DHT22;8861;52.644;4.734;2023-11-21T14:44:05;10.80;99.90
17489;DHT22;8861;52.644;4.734;2023-11-21T14:46:38;10.70;99.90
17489;DHT22;8861;52.644;4.734;2023-11-21T14:49:09;10.70;99.90
17489;DHT22;8861;52.644;4.734;2023-11-21T14:51:45;10.60;99.90
17489;DHT22;8861;52.644;4.734;2023-11-21T14:54:26;10.60;99.90
17489;DHT22;8861;52.644;4.734;2023-11-21T14:57:06;10.50;99.90
17489;DHT22;8861;52.644;4.734;2023-11-21T14:59:37;10.50;99.90
17489;DHT22;8861;52.644;4.734;2023-11-21T15:02:04;10.40;99.90
17489;DHT22;8861;52.644;4.734;2023-11-21T15:04:42;10.40;99.90
17489;DHT22;8861;52.644;4.734;2023-11-21T15:07:08;10.30;99.90
17489;DHT22;8861;52.644;4.734;2023-11-21T15:09:36;10.20;99.90
17489;DHT22;8861;52.644;4.734;2023-11-21T15:12:07;10.10;99.90
17489;DHT22;8861;52.644;4.734;2023-11-21T15:14:44;10.10;99.90
17489;DHT22;8861;52.644;4.734;2023-11-21T15:17:13;10.00;99.90
17489;DHT22;8861;52.644;4.734;2023-11-21T15:19:44;9.90;99.90
17489;DHT22;8861;52.644;4.734;2023-11-21T15:22:11;9.90;99.90
17489;DHT22;8861;52.644;4.734;2023-11-21T15:24:41;9.80;99.90
17489;DHT22;8861;52.644;4.734;2023-11-21T15:27:10;9.70;99.90
17489;DHT22;8861;52.644;4.734;2023-11-21T15:29:38;9.70;99.90
17489;DHT22;8861;52.644;4.734;2023-11-21T15:32:06;9.60;99.90
17489;DHT22;8861;52.644;4.734;2023-11-21T15:34:35;9.50;99.90
17489;DHT22;8861;52.644;4.734;2023-11-21T15:37:03;9.40;99.90
17489;DHT22;8861;52.644;4.734;2023-11-21T15:39:31;9.30;99.90
17489;DHT22;8861;52.644;4.734;2023-11-21T15:41:58;9.20;99.90
17489;DHT22;8861;52.644;4.734;2023-11-21T15:44:26;9.10;99.90
17489;DHT22;8861;52.644;4.734;2023-11-21T15:46:54;9.10;99.90
17489;DHT22;8861;52.644;4.734;2023-11-21T15:49:21;9.00;99.90
17489;DHT22;8861;52.644;4.734;2023-11-21T15:51:50;8.90;99.90
17489;DHT22;8861;52.644;4.734;2023-11-21T15:54:21;8.80;99.90
17489;DHT22;8861;52.644;4.734;2023-11-21T15:56:50;8.80;99.90
17489;DHT22;8861;52.644;4.734;2023-11-21T15:59:18;8.80;99.90